sensor_id;sensor_type;location;lat;lon;timestamp;pressure;altitude;pressure_sealevel;temperature;humidity
51849;BME280;38952;51.090;-1.832;2024-02-26T00:02:23;98263.66;;;4.98;100.00
51849;BME280;38952;51.090;-1.832;2024-02-26T00:04:49;98288.53;;;5.05;100.00
51849;BME280;38952;51.090;-1.832;2024-02-26T00:07:15;98274.22;;;4.95;100.00
51849;BME280;38952;51.090;-1.832;2024-02-26T00:09:51;98266.19;;;4.84;100.00
51849;BME280;38952;51.090;-1.832;2024-02-26T00:12:19;98281.63;;;4.84;100.00
51849;BME280;38952;51.090;-1.832;2024-02-26T00:14:44;98282.69;;;4.83;100.00
51849;BME280;38952;51.090;-1.832;2024-02-26T00:17:12;98307.06;;;4.88;100.00
51849;BME280;38952;51.090;-1.832;2024-02-26T00:19:43;98298.44;;;4.81;100.00
51849;BME280;38952;51.090;-1.832;2024-02-26T00:22:11;98294.16;;;4.75;100.00
51849;BME280;38952;51.090;-1.832;2024-02-26T00:24:40;98314.75;;;4.70;100.00
51849;BME280;38952;51.090;-1.832;2024-02-26T00:37:46;98367.03;;;4.66;100.00
51849;BME280;38952;51.090;-1.832;2024-02-26T00:40:12;98342.72;;;4.50;100.00
51849;BME280;38952;51.090;-1.832;2024-02-26T00:42:37;98360.31;;;4.48;100.00
51849;BME280;38952;51.090;-1.832;2024-02-26T00:45:14;98328.19;;;4.31;100.00
51849;BME280;38952;51.090;-1.832;2024-02-26T00:47:57;98337.66;;;4.23;100.00
51849;BME280;38952;51.090;-1.832;2024-02-26T00:51:17;98397.13;;;4.44;100.00
51849;BME280;38952;51.090;-1.832;2024-02-26T00:53:47;98388.75;;;4.35;100.00
51849;BME280;38952;51.090;-1.832;2024-02-26T00:56:23;98399.31;;;4.42;100.00
51849;BME280;38952;51.090;-1.832;2024-02-26T00:58:48;98396.06;;;4.40;100.00
51849;BME280;38952;51.090;-1.832;2024-02-26T01:01:14;98403.91;;;4.36;100.00
51849;BME280;38952;51.090;-1.832;2024-02-26T01:03:39;98407.97;;;4.33;100.00
51849;BME280;38952;51.090;-1.832;2024-02-26T01:06:18;98386.66;;;4.11;100.00
51849;BME280;38952;51.090;-1.832;2024-02-26T01:08:47;98419.88;;;4.37;100.00
51849;BME280;38952;51.090;-1.832;2024-02-26T01:11:12;98395.03;;;4.20;100.00
51849;BME280;38952;51.090;-1.832;2024-02-26T01:13:38;98413.69;;;4.27;100.00
51849;BME280;38952;51.090;-1.832;2024-02-26T01:16:24;98452.88;;;4.45;100.00
51849;BME280;38952;51.090;-1.832;2024-02-26T01:19:00;98445.31;;;4.47;100.00
51849;BME280;38952;51.090;-1.832;2024-02-26T01:21:33;98454.75;;;4.49;100.00
51849;BME280;38952;51.090;-1.832;2024-02-26T01:23:59;98471.28;;;4.53;100.00
51849;BME280;38952;51.090;-1.832;2024-02-26T01:26:24;98461.56;;;4.47;100.00
51849;BME280;38952;51.090;-1.832;2024-02-26T01:29:29;98478.84;;;4.56;100.00
51849;BME280;38952;51.090;-1.832;2024-02-26T01:31:54;98451.81;;;4.41;100.00
51849;BME280;38952;51.090;-1.832;2024-02-26T01:52:49;98524.31;;;4.54;100.00
51849;BME280;38952;51.090;-1.832;2024-02-26T01:56:20;98541.09;;;4.66;100.00
51849;BME280;38952;51.090;-1.832;2024-02-26T01:59:08;98558.44;;;4.60;100.00
51849;BME280;38952;51.090;-1.832;2024-02-26T02:08:52;98587.41;;;4.65;100.00
51849;BME280;38952;51.090;-1.832;2024-02-26T02:11:38;98553.56;;;4.36;100.00
51849;BME280;38952;51.090;-1.832;2024-02-26T02:14:06;98582.25;;;4.58;100.00
51849;BME280;38952;51.090;-1.832;2024-02-26T02:16:32;98591.19;;;4.53;100.00
51849;BME280;38952;51.090;-1.832;2024-02-26T02:19:06;98589.84;;;4.51;100.00
51849;BME280;38952;51.090;-1.832;2024-02-26T02:21:32;98619.06;;;4.64;100.00
51849;BME280;38952;51.090;-1.832;2024-02-26T02:23:59;98612.03;;;4.63;100.00
51849;BME280;38952;51.090;-1.832;2024-02-26T02:26:27;98586.84;;;4.52;100.00
51849;BME280;38952;51.090;-1.832;2024-02-26T02:28:58;98614.47;;;4.65;100.00
51849;BME280;38952;51.090;-1.832;2024-02-26T02:31:24;98604.44;;;4.65;100.00
51849;BME280;38952;51.090;-1.832;2024-02-26T02:33:56;98622.31;;;4.61;100.00
51849;BME280;38952;51.090;-1.832;2024-02-26T02:36:24;98603.38;;;4.56;100.00
51849;BME280;38952;51.090;-1.832;2024-02-26T02:38:53;98632.63;;;4.59;100.00
51849;BME280;38952;51.090;-1.832;2024-02-26T02:41:18;98613.66;;;4.54;100.00
51849;BME280;38952;51.090;-1.832;2024-02-26T02:43:44;98651.28;;;4.71;100.00
51849;BME280;38952;51.090;-1.832;2024-02-26T02:46:13;98610.97;;;4.49;100.00
51849;BME280;38952;51.090;-1.832;2024-02-26T02:48:58;98652.66;;;4.63;100.00
51849;BME280;38952;51.090;-1.832;2024-02-26T02:51:33;98629.38;;;4.52;100.00
51849;BME280;38952;51.090;-1.832;2024-02-26T02:53:59;98605.28;;;4.40;100.00
51849;BME280;38952;51.090;-1.832;2024-02-26T02:56:24;98643.97;;;4.46;100.00
51849;BME280;38952;51.090;-1.832;2024-02-26T02:58:57;98681.91;;;4.66;100.00
51849;BME280;38952;51.090;-1.832;2024-02-26T03:04:31;98691.66;;;4.57;100.00
51849;BME280;38952;51.090;-1.832;2024-02-26T03:07:00;98664.00;;;4.40;100.00
51849;BME280;38952;51.090;-1.832;2024-02-26T03:09:27;98683.50;;;4.47;100.00
51849;BME280;38952;51.090;-1.832;2024-02-26T03:11:55;98678.59;;;4.44;100.00
51849;BME280;38952;51.090;-1.832;2024-02-26T03:14:23;98718.44;;;4.53;100.00
51849;BME280;38952;51.090;-1.832;2024-02-26T03:16:57;98701.38;;;4.43;100.00
51849;BME280;38952;51.090;-1.832;2024-02-26T03:19:30;98704.06;;;4.43;100.00
51849;BME280;38952;51.090;-1.832;2024-02-26T03:22:00;98725.19;;;4.46;100.00
51849;BME280;38952;51.090;-1.832;2024-02-26T03:24:28;98685.88;;;4.23;100.00
51849;BME280;38952;51.090;-1.832;2024-02-26T03:26:54;98706.47;;;4.34;100.00
51849;BME280;38952;51.090;-1.832;2024-02-26T03:29:19;98726.25;;;4.40;100.00
51849;BME280;38952;51.090;-1.832;2024-02-26T03:31:45;98730.59;;;4.46;100.00
51849;BME280;38952;51.090;-1.832;2024-02-26T03:34:11;98741.44;;;4.56;100.00
51849;BME280;38952;51.090;-1.832;2024-02-26T03:36:40;98751.16;;;4.42;100.00
51849;BME280;38952;51.090;-1.832;2024-02-26T03:39:09;98760.13;;;4.58;100.00
51849;BME280;38952;51.090;-1.832;2024-02-26T03:41:37;98756.63;;;4.62;100.00
51849;BME280;38952;51.090;-1.832;2024-02-26T03:44:03;98788.03;;;4.68;100.00
51849;BME280;38952;51.090;-1.832;2024-02-26T03:46:28;98767.16;;;4.48;100.00
51849;BME280;38952;51.090;-1.832;2024-02-26T03:49:04;98803.75;;;4.71;100.00
51849;BME280;38952;51.090;-1.832;2024-02-26T03:51:29;98768.50;;;4.46;100.00
51849;BME280;38952;51.090;-1.832;2024-02-26T03:53:57;98802.69;;;4.67;100.00
51849;BME280;38952;51.090;-1.832;2024-02-26T03:56:23;98809.13;;;4.56;100.00
51849;BME280;38952;51.090;-1.832;2024-02-26T03:58:49;98798.28;;;4.51;100.00
51849;BME280;38952;51.090;-1.832;2024-02-26T04:01:15;98840.59;;;4.67;100.00
51849;BME280;38952;51.090;-1.832;2024-02-26T04:03:40;98823.19;;;4.53;100.00
51849;BME280;38952;51.090;-1.832;2024-02-26T04:06:08;98822.63;;;4.51;100.00
51849;BME280;38952;51.090;-1.832;2024-02-26T04:08:45;98846.81;;;4.68;100.00
51849;BME280;38952;51.090;-1.832;2024-02-26T04:11:10;98864.69;;;4.69;100.00
51849;BME280;38952;51.090;-1.832;2024-02-26T04:13:41;98833.47;;;4.51;100.00
51849;BME280;38952;51.090;-1.832;2024-02-26T04:16:17;98838.88;;;4.51;100.00
51849;BME280;38952;51.090;-1.832;2024-02-26T04:18:43;98878.75;;;4.71;100.00
51849;BME280;38952;51.090;-1.832;2024-02-26T04:21:09;98867.66;;;4.67;100.00
51849;BME280;38952;51.090;-1.832;2024-02-26T04:23:34;98895.31;;;4.75;100.00
51849;BME280;38952;51.090;-1.832;2024-02-26T04:25:59;98871.41;;;4.56;100.00
51849;BME280;38952;51.090;-1.832;2024-02-26T04:28:25;98879.53;;;4.56;100.00
51849;BME280;38952;51.090;-1.832;2024-02-26T04:30:56;98867.31;;;4.48;100.00
51849;BME280;38952;51.090;-1.832;2024-02-26T04:33:24;98897.91;;;4.49;100.00
51849;BME280;38952;51.090;-1.832;2024-02-26T04:35:52;98891.94;;;4.47;100.00
51849;BME280;38952;51.090;-1.832;2024-02-26T04:38:18;98917.97;;;4.58;100.00
51849;BME280;38952;51.090;-1.832;2024-02-26T04:40:43;98907.09;;;4.48;100.00
51849;BME280;38952;51.090;-1.832;2024-02-26T04:43:14;98901.09;;;4.41;100.00
51849;BME280;38952;51.090;-1.832;2024-02-26T04:45:47;98905.97;;;4.39;100.00
51849;BME280;38952;51.090;-1.832;2024-02-26T04:48:13;98938.50;;;4.54;100.00
51849;BME280;38952;51.090;-1.832;2024-02-26T04:50:38;98939.03;;;4.51;100.00
51849;BME280;38952;51.090;-1.832;2024-02-26T04:53:04;98956.91;;;4.52;100.00
51849;BME280;38952;51.090;-1.832;2024-02-26T04:55:29;98933.50;;;4.30;100.00
51849;BME280;38952;51.090;-1.832;2024-02-26T04:57:57;98954.09;;;4.36;100.00
51849;BME280;38952;51.090;-1.832;2024-02-26T05:00:32;98971.25;;;4.47;100.00
51849;BME280;38952;51.090;-1.832;2024-02-26T05:02:57;98987.25;;;4.54;100.00
51849;BME280;38952;51.090;-1.832;2024-02-26T05:05:22;98985.63;;;4.53;100.00
51849;BME280;38952;51.090;-1.832;2024-02-26T05:07:48;98996.94;;;4.45;100.00
51849;BME280;38952;51.090;-1.832;2024-02-26T05:10:16;98991.19;;;4.36;100.00
51849;BME280;38952;51.090;-1.832;2024-02-26T05:19:13;99015.75;;;4.24;100.00
51849;BME280;38952;51.090;-1.832;2024-02-26T05:21:39;99021.59;;;4.11;100.00
51849;BME280;38952;51.090;-1.832;2024-02-26T05:24:05;99031.38;;;4.17;100.00
51849;BME280;38952;51.090;-1.832;2024-02-26T05:27:12;99053.63;;;4.24;99.85
51849;BME280;38952;51.090;-1.832;2024-02-26T05:29:56;99042.72;;;4.14;99.39
51849;BME280;38952;51.090;-1.832;2024-02-26T05:37:57;99058.75;;;3.93;97.76
51849;BME280;38952;51.090;-1.832;2024-02-26T05:40:23;99023.44;;;3.78;96.89
51849;BME280;38952;51.090;-1.832;2024-02-26T05:42:52;99072.13;;;4.05;97.05
51849;BME280;38952;51.090;-1.832;2024-02-26T05:45:18;99075.72;;;4.16;95.91
51849;BME280;38952;51.090;-1.832;2024-02-26T05:47:43;99101.72;;;4.17;95.80
51849;BME280;38952;51.090;-1.832;2024-02-26T05:50:19;99094.06;;;4.09;96.51
51849;BME280;38952;51.090;-1.832;2024-02-26T05:52:45;99125.56;;;4.20;95.70
51849;BME280;38952;51.090;-1.832;2024-02-26T05:55:11;99102.69;;;4.06;96.13
51849;BME280;38952;51.090;-1.832;2024-02-26T05:57:39;99143.00;;;4.29;95.27
51849;BME280;38952;51.090;-1.832;2024-02-26T06:00:10;99132.38;;;4.23;95.09
51849;BME280;38952;51.090;-1.832;2024-02-26T06:02:46;99137.56;;;4.29;96.13
51849;BME280;38952;51.090;-1.832;2024-02-26T06:05:11;99171.13;;;4.28;96.25
51849;BME280;38952;51.090;-1.832;2024-02-26T06:07:37;99155.84;;;4.17;95.53
51849;BME280;38952;51.090;-1.832;2024-02-26T06:10:09;99148.69;;;4.06;95.43
51849;BME280;38952;51.090;-1.832;2024-02-26T06:12:49;99159.50;;;4.06;95.52
51849;BME280;38952;51.090;-1.832;2024-02-26T06:15:14;99174.75;;;4.12;95.06
51849;BME280;38952;51.090;-1.832;2024-02-26T06:17:42;99181.16;;;4.06;94.58
51849;BME280;38952;51.090;-1.832;2024-02-26T06:20:08;99211.09;;;4.21;95.09
51849;BME280;38952;51.090;-1.832;2024-02-26T06:22:46;99183.03;;;4.05;94.90
51849;BME280;38952;51.090;-1.832;2024-02-26T06:25:12;99180.59;;;4.04;94.74
51849;BME280;38952;51.090;-1.832;2024-02-26T06:27:38;99192.47;;;4.02;94.67
51849;BME280;38952;51.090;-1.832;2024-02-26T06:30:06;99212.97;;;3.98;94.34
51849;BME280;38952;51.090;-1.832;2024-02-26T06:32:33;99214.50;;;3.89;94.72
51849;BME280;38952;51.090;-1.832;2024-02-26T06:38:16;99226.22;;;3.95;94.41
51849;BME280;38952;51.090;-1.832;2024-02-26T06:40:46;99204.75;;;3.88;93.85
51849;BME280;38952;51.090;-1.832;2024-02-26T06:43:25;99274.41;;;4.20;94.83
51849;BME280;38952;51.090;-1.832;2024-02-26T06:46:12;99220.41;;;3.86;93.90
51849;BME280;38952;51.090;-1.832;2024-02-26T06:48:38;99284.72;;;4.23;93.81
51849;BME280;38952;51.090;-1.832;2024-02-26T06:51:09;99227.47;;;3.87;93.52
51849;BME280;38952;51.090;-1.832;2024-02-26T06:54:00;99260.63;;;3.99;92.94
51849;BME280;38952;51.090;-1.832;2024-02-26T06:57:08;99289.06;;;4.02;93.04
51849;BME280;38952;51.090;-1.832;2024-02-26T07:05:44;99321.47;;;4.19;94.68
51849;BME280;38952;51.090;-1.832;2024-02-26T07:08:13;99261.50;;;3.83;92.62
51849;BME280;38952;51.090;-1.832;2024-02-26T07:10:40;99327.72;;;4.19;92.26
51849;BME280;38952;51.090;-1.832;2024-02-26T07:13:06;99306.47;;;3.89;92.19
51849;BME280;38952;51.090;-1.832;2024-02-26T07:15:43;99295.84;;;3.65;92.91
51849;BME280;38952;51.090;-1.832;2024-02-26T07:18:31;99286.19;;;3.70;91.90
51849;BME280;38952;51.090;-1.832;2024-02-26T07:21:02;99331.22;;;3.81;92.51
51849;BME280;38952;51.090;-1.832;2024-02-26T07:23:55;99375.28;;;4.15;92.32
51849;BME280;38952;51.090;-1.832;2024-02-26T07:29:49;99371.94;;;4.30;91.79
51849;BME280;38952;51.090;-1.832;2024-02-26T07:32:43;99400.97;;;4.35;91.78
51849;BME280;38952;51.090;-1.832;2024-02-26T07:35:30;99373.97;;;4.18;92.93
51849;BME280;38952;51.090;-1.832;2024-02-26T07:38:21;99411.47;;;4.48;92.14
51849;BME280;38952;51.090;-1.832;2024-02-26T07:41:07;99433.41;;;4.52;91.65
51849;BME280;38952;51.090;-1.832;2024-02-26T07:43:42;99431.28;;;4.54;92.86
51849;BME280;38952;51.090;-1.832;2024-02-26T07:46:14;99397.94;;;4.31;92.57
51849;BME280;38952;51.090;-1.832;2024-02-26T07:48:47;99413.91;;;4.50;93.12
51849;BME280;38952;51.090;-1.832;2024-02-26T07:51:13;99417.69;;;4.49;93.69
51849;BME280;38952;51.090;-1.832;2024-02-26T07:53:49;99409.06;;;4.52;93.02
51849;BME280;38952;51.090;-1.832;2024-02-26T08:00:30;99444.78;;;4.71;92.10
51849;BME280;38952;51.090;-1.832;2024-02-26T08:03:00;99467.53;;;4.92;92.51
51849;BME280;38952;51.090;-1.832;2024-02-26T08:05:26;99446.78;;;4.81;92.12
51849;BME280;38952;51.090;-1.832;2024-02-26T08:07:51;99477.34;;;4.98;93.38
51849;BME280;38952;51.090;-1.832;2024-02-26T08:10:17;99463.69;;;4.88;95.22
51849;BME280;38952;51.090;-1.832;2024-02-26T08:12:43;99495.81;;;5.01;95.78
51849;BME280;38952;51.090;-1.832;2024-02-26T08:15:20;99479.06;;;5.04;95.81
51849;BME280;38952;51.090;-1.832;2024-02-26T08:17:47;99488.25;;;5.03;96.19
51849;BME280;38952;51.090;-1.832;2024-02-26T08:20:13;99481.13;;;4.97;96.91
51849;BME280;38952;51.090;-1.832;2024-02-26T08:22:41;99501.53;;;5.05;97.34
51849;BME280;38952;51.090;-1.832;2024-02-26T08:25:07;99498.56;;;5.06;98.49
51849;BME280;38952;51.090;-1.832;2024-02-26T08:27:34;99494.16;;;5.00;99.08
51849;BME280;38952;51.090;-1.832;2024-02-26T08:29:59;99485.53;;;5.03;98.81
51849;BME280;38952;51.090;-1.832;2024-02-26T08:32:25;99513.47;;;5.26;97.84
51849;BME280;38952;51.090;-1.832;2024-02-26T08:34:50;99496.56;;;5.19;95.84
51849;BME280;38952;51.090;-1.832;2024-02-26T08:37:28;99495.16;;;5.38;93.41
51849;BME280;38952;51.090;-1.832;2024-02-26T08:39:54;99527.28;;;5.52;91.52
51849;BME280;38952;51.090;-1.832;2024-02-26T08:42:19;99521.31;;;5.50;90.78
51849;BME280;38952;51.090;-1.832;2024-02-26T08:44:45;99524.56;;;5.52;89.77
51849;BME280;38952;51.090;-1.832;2024-02-26T08:47:13;99511.22;;;5.45;90.00
51849;BME280;38952;51.090;-1.832;2024-02-26T08:49:42;99548.00;;;5.58;89.37
51849;BME280;38952;51.090;-1.832;2024-02-26T08:52:08;99519.50;;;5.33;88.18
51849;BME280;38952;51.090;-1.832;2024-02-26T08:54:41;99555.75;;;5.49;88.40
51849;BME280;38952;51.090;-1.832;2024-02-26T08:57:09;99568.03;;;5.57;87.31
51849;BME280;38952;51.090;-1.832;2024-02-26T08:59:35;99548.25;;;5.34;86.94
51849;BME280;38952;51.090;-1.832;2024-02-26T09:02:06;99552.59;;;5.35;86.56
51849;BME280;38952;51.090;-1.832;2024-02-26T09:04:36;99570.25;;;5.60;86.43
51849;BME280;38952;51.090;-1.832;2024-02-26T09:07:07;99579.00;;;5.67;86.06
51849;BME280;38952;51.090;-1.832;2024-02-26T09:34:04;99644.63;;;6.41;81.59
51849;BME280;38952;51.090;-1.832;2024-02-26T09:36:43;99638.72;;;6.76;80.18
51849;BME280;38952;51.090;-1.832;2024-02-26T09:39:09;99629.53;;;6.88;78.95
51849;BME280;38952;51.090;-1.832;2024-02-26T09:42:08;99668.84;;;7.12;78.27
51849;BME280;38952;51.090;-1.832;2024-02-26T09:44:39;99652.59;;;7.23;77.11
51849;BME280;38952;51.090;-1.832;2024-02-26T09:47:18;99661.09;;;7.31;77.03
51849;BME280;38952;51.090;-1.832;2024-02-26T09:49:56;99669.97;;;7.16;76.88
51849;BME280;38952;51.090;-1.832;2024-02-26T09:52:23;99673.13;;;6.98;77.86
51849;BME280;38952;51.090;-1.832;2024-02-26T09:58:16;99645.00;;;6.82;77.87
51849;BME280;38952;51.090;-1.832;2024-02-26T10:00:56;99674.25;;;7.07;77.91
51849;BME280;38952;51.090;-1.832;2024-02-26T10:03:54;99697.28;;;7.32;76.46
51849;BME280;38952;51.090;-1.832;2024-02-26T10:06:25;99692.44;;;7.44;75.59
51849;BME280;38952;51.090;-1.832;2024-02-26T10:08:54;99663.59;;;7.38;74.71
51849;BME280;38952;51.090;-1.832;2024-02-26T10:11:36;99676.88;;;7.88;73.73
51849;BME280;38952;51.090;-1.832;2024-02-26T10:14:31;99698.78;;;8.24;71.15
51849;BME280;38952;51.090;-1.832;2024-02-26T10:17:09;99659.31;;;8.42;69.68
51849;BME280;38952;51.090;-1.832;2024-02-26T10:19:43;99713.56;;;8.48;68.32
51849;BME280;38952;51.090;-1.832;2024-02-26T10:22:31;99752.72;;;8.27;69.11
51849;BME280;38952;51.090;-1.832;2024-02-26T10:25:04;99699.16;;;7.79;70.12
51849;BME280;38952;51.090;-1.832;2024-02-26T10:27:34;99728.59;;;7.88;70.53
51849;BME280;38952;51.090;-1.832;2024-02-26T10:32:45;99741.38;;;8.50;69.81
51849;BME280;38952;51.090;-1.832;2024-02-26T10:35:32;99738.47;;;10.20;66.29
51849;BME280;38952;51.090;-1.832;2024-02-26T10:38:09;99740.06;;;10.31;61.43
51849;BME280;38952;51.090;-1.832;2024-02-26T10:40:45;99734.84;;;9.59;61.40
51849;BME280;38952;51.090;-1.832;2024-02-26T10:43:11;99771.72;;;9.11;62.65
51849;BME280;38952;51.090;-1.832;2024-02-26T10:45:36;99783.94;;;8.62;64.77
51849;BME280;38952;51.090;-1.832;2024-02-26T10:48:31;99786.81;;;8.34;65.31
51849;BME280;38952;51.090;-1.832;2024-02-26T10:52:02;99762.50;;;8.23;65.45
51849;BME280;38952;51.090;-1.832;2024-02-26T10:54:16;99790.97;;;10.07;63.99
51849;BME280;38952;51.090;-1.832;2024-02-26T10:56:58;99792.69;;;11.72;57.16
51849;BME280;38952;51.090;-1.832;2024-02-26T10:59:35;99794.97;;;11.59;54.52
51849;BME280;38952;51.090;-1.832;2024-02-26T11:02:04;99820.44;;;11.30;55.06
51849;BME280;38952;51.090;-1.832;2024-02-26T11:04:35;99778.38;;;11.16;56.21
51849;BME280;38952;51.090;-1.832;2024-02-26T11:07:24;99818.25;;;12.64;54.83
51849;BME280;38952;51.090;-1.832;2024-02-26T11:10:18;99838.50;;;13.25;51.28
51849;BME280;38952;51.090;-1.832;2024-02-26T11:12:47;99794.31;;;12.69;50.25
51849;BME280;38952;51.090;-1.832;2024-02-26T11:15:32;99794.56;;;11.76;51.55
51849;BME280;38952;51.090;-1.832;2024-02-26T11:17:59;99850.47;;;11.35;54.06
51849;BME280;38952;51.090;-1.832;2024-02-26T11:20:31;99822.97;;;10.77;54.19
51849;BME280;38952;51.090;-1.832;2024-02-26T11:23:00;99826.31;;;10.63;54.92
51849;BME280;38952;51.090;-1.832;2024-02-26T11:25:33;99817.31;;;12.49;52.26
51849;BME280;38952;51.090;-1.832;2024-02-26T11:28:05;99855.25;;;14.08;47.43
51849;BME280;38952;51.090;-1.832;2024-02-26T11:30:55;99867.91;;;14.09;45.35
51849;BME280;38952;51.090;-1.832;2024-02-26T11:33:44;99888.25;;;15.19;45.20
51849;BME280;38952;51.090;-1.832;2024-02-26T11:36:14;99900.03;;;17.75;40.56
51849;BME280;38952;51.090;-1.832;2024-02-26T11:38:56;99881.75;;;21.65;35.21
51849;BME280;38952;51.090;-1.832;2024-02-26T11:41:24;99872.28;;;25.07;27.91
51849;BME280;38952;51.090;-1.832;2024-02-26T11:44:09;99873.38;;;26.83;24.47
51849;BME280;38952;51.090;-1.832;2024-02-26T11:47:09;99829.38;;;28.40;23.36
51849;BME280;38952;51.090;-1.832;2024-02-26T11:49:47;99834.91;;;29.08;20.95
51849;BME280;38952;51.090;-1.832;2024-02-26T11:52:15;99879.09;;;30.15;20.36
51849;BME280;38952;51.090;-1.832;2024-02-26T11:54:49;99861.34;;;31.77;20.63
51849;BME280;38952;51.090;-1.832;2024-02-26T11:57:27;99855.41;;;33.57;18.95
51849;BME280;38952;51.090;-1.832;2024-02-26T12:00:52;99888.94;;;31.97;17.62
51849;BME280;38952;51.090;-1.832;2024-02-26T12:03:00;99897.72;;;26.23;21.90
51849;BME280;38952;51.090;-1.832;2024-02-26T12:05:32;99897.13;;;23.34;24.84
51849;BME280;38952;51.090;-1.832;2024-02-26T12:08:21;99895.88;;;20.57;28.99
51849;BME280;38952;51.090;-1.832;2024-02-26T12:10:58;99851.88;;;18.41;30.95
51849;BME280;38952;51.090;-1.832;2024-02-26T12:13:31;99873.63;;;16.01;34.45
51849;BME280;38952;51.090;-1.832;2024-02-26T12:19:48;99889.25;;;16.37;36.48
51849;BME280;38952;51.090;-1.832;2024-02-26T12:22:23;99851.16;;;16.56;36.29
51849;BME280;38952;51.090;-1.832;2024-02-26T12:25:03;99882.13;;;16.45;35.45
51849;BME280;38952;51.090;-1.832;2024-02-26T12:27:48;99867.47;;;16.84;35.94
51849;BME280;38952;51.090;-1.832;2024-02-26T12:30:17;99891.16;;;19.45;31.71
51849;BME280;38952;51.090;-1.832;2024-02-26T12:32:46;99899.03;;;21.05;31.16
51849;BME280;38952;51.090;-1.832;2024-02-26T12:35:23;99940.09;;;21.24;29.16
51849;BME280;38952;51.090;-1.832;2024-02-26T12:37:52;99923.56;;;19.53;30.32
51849;BME280;38952;51.090;-1.832;2024-02-26T12:40:28;99936.41;;;18.29;32.45
51849;BME280;38952;51.090;-1.832;2024-02-26T12:42:56;99952.31;;;18.50;32.70
51849;BME280;38952;51.090;-1.832;2024-02-26T12:45:22;99932.19;;;21.38;31.26
51849;BME280;38952;51.090;-1.832;2024-02-26T12:48:04;99922.09;;;23.66;25.59
51849;BME280;38952;51.090;-1.832;2024-02-26T12:50:33;99952.56;;;21.67;27.63
51849;BME280;38952;51.090;-1.832;2024-02-26T12:53:00;99956.72;;;20.37;29.49
51849;BME280;38952;51.090;-1.832;2024-02-26T12:55:28;99965.94;;;19.53;30.87
51849;BME280;38952;51.090;-1.832;2024-02-26T12:58:08;99974.00;;;18.95;32.85
51849;BME280;38952;51.090;-1.832;2024-02-26T13:00:34;99918.16;;;20.23;30.94
51849;BME280;38952;51.090;-1.832;2024-02-26T13:03:00;99984.25;;;20.43;30.92
51849;BME280;38952;51.090;-1.832;2024-02-26T13:05:29;99968.34;;;21.38;29.12
51849;BME280;38952;51.090;-1.832;2024-02-26T13:07:55;99972.72;;;22.33;28.00
51849;BME280;38952;51.090;-1.832;2024-02-26T13:10:20;99969.72;;;26.19;24.84
51849;BME280;38952;51.090;-1.832;2024-02-26T13:12:49;99963.19;;;28.59;21.52
51849;BME280;38952;51.090;-1.832;2024-02-26T13:15:21;99981.22;;;24.73;23.58
51849;BME280;38952;51.090;-1.832;2024-02-26T13:17:48;99991.38;;;21.64;26.99
51849;BME280;38952;51.090;-1.832;2024-02-26T13:20:33;99972.84;;;19.26;30.33
51849;BME280;38952;51.090;-1.832;2024-02-26T13:23:34;99958.63;;;19.79;29.97
51849;BME280;38952;51.090;-1.832;2024-02-26T13:36:46;99950.34;;;28.65;20.09
51849;BME280;38952;51.090;-1.832;2024-02-26T13:39:21;99957.50;;;29.42;19.15
51849;BME280;38952;51.090;-1.832;2024-02-26T13:41:49;99971.34;;;30.77;18.54
51849;BME280;38952;51.090;-1.832;2024-02-26T13:44:26;99930.03;;;31.74;17.68
51849;BME280;38952;51.090;-1.832;2024-02-26T13:47:02;99946.16;;;31.01;17.49
51849;BME280;38952;51.090;-1.832;2024-02-26T13:50:10;99994.84;;;31.54;17.63
51849;BME280;38952;51.090;-1.832;2024-02-26T13:53:12;99970.38;;;26.88;20.67
51849;BME280;38952;51.090;-1.832;2024-02-26T13:56:09;99989.22;;;20.95;27.84
51849;BME280;38952;51.090;-1.832;2024-02-26T14:02:00;100019.03;;;20.61;32.62
51849;BME280;38952;51.090;-1.832;2024-02-26T14:04:29;99967.69;;;24.32;26.55
51849;BME280;38952;51.090;-1.832;2024-02-26T14:06:57;99989.63;;;26.89;23.65
51849;BME280;38952;51.090;-1.832;2024-02-26T14:09:23;99998.97;;;28.77;21.79
51849;BME280;38952;51.090;-1.832;2024-02-26T14:12:17;100017.19;;;30.25;20.03
51849;BME280;38952;51.090;-1.832;2024-02-26T14:14:45;100029.09;;;31.14;18.10
51849;BME280;38952;51.090;-1.832;2024-02-26T14:17:14;100049.75;;;31.53;18.55
51849;BME280;38952;51.090;-1.832;2024-02-26T14:19:41;100047.28;;;31.55;18.00
51849;BME280;38952;51.090;-1.832;2024-02-26T14:22:12;100029.91;;;28.84;19.77
51849;BME280;38952;51.090;-1.832;2024-02-26T14:24:37;100026.16;;;27.45;20.59
51849;BME280;38952;51.090;-1.832;2024-02-26T14:27:28;100000.50;;;24.58;22.75
51849;BME280;38952;51.090;-1.832;2024-02-26T14:29:57;100017.94;;;21.49;26.26
51849;BME280;38952;51.090;-1.832;2024-02-26T14:35:21;99997.81;;;21.15;28.06
51849;BME280;38952;51.090;-1.832;2024-02-26T14:37:47;100020.59;;;23.66;24.26
51849;BME280;38952;51.090;-1.832;2024-02-26T14:40:18;100045.13;;;25.71;21.76
51849;BME280;38952;51.090;-1.832;2024-02-26T14:42:54;100026.34;;;26.73;21.85
51849;BME280;38952;51.090;-1.832;2024-02-26T14:45:24;100046.03;;;27.81;20.09
51849;BME280;38952;51.090;-1.832;2024-02-26T14:47:57;100035.53;;;27.15;20.35
51849;BME280;38952;51.090;-1.832;2024-02-26T14:50:22;100059.56;;;27.09;21.06
51849;BME280;38952;51.090;-1.832;2024-02-26T14:53:05;100038.00;;;25.23;22.19
51849;BME280;38952;51.090;-1.832;2024-02-26T14:55:31;100029.91;;;24.29;23.23
51849;BME280;38952;51.090;-1.832;2024-02-26T14:57:57;100039.50;;;21.02;26.38
51849;BME280;38952;51.090;-1.832;2024-02-26T15:00:23;100064.19;;;19.74;28.73
51849;BME280;38952;51.090;-1.832;2024-02-26T15:02:48;100025.25;;;19.91;29.98
51849;BME280;38952;51.090;-1.832;2024-02-26T15:05:26;100050.53;;;23.50;26.30
51849;BME280;38952;51.090;-1.832;2024-02-26T15:07:52;100038.66;;;25.67;23.32
51849;BME280;38952;51.090;-1.832;2024-02-26T15:10:17;100054.34;;;26.02;22.07
51849;BME280;38952;51.090;-1.832;2024-02-26T15:12:45;100062.28;;;24.73;22.39
51849;BME280;38952;51.090;-1.832;2024-02-26T15:15:13;100064.06;;;21.74;25.16
51849;BME280;38952;51.090;-1.832;2024-02-26T15:17:39;100080.56;;;19.36;28.72
51849;BME280;38952;51.090;-1.832;2024-02-26T15:20:09;100081.03;;;17.11;32.79
51849;BME280;38952;51.090;-1.832;2024-02-26T15:22:59;100081.63;;;15.86;34.65